Ana Sayfa
METAR-TAF:

METAR-TAF

Havaalanları :

Presque_Isle_County_Airport

Rogers City, Michigan, Amerika Birleşik Devletleri

Enlem: 45-24-25N, Boylam: 083-48-46W, yükseklik: 204 m

Güncel hava durumu gözlemi

Rapor saat 14:15 UTC de 22 dakika önce yapıldı.
Rüzgar kuzeydan 4 kt
Sıcaklık 20°C
Nem 83%
Basınç 1015 hPa
Görüş mesafesi: 16.1 km
Açık gökyüzü

METAR: KPZQ 171415Z AUTO 36004KT 10SM CLR 20/17 A2998 RMK AO2 T02030166

Saat: 10:37 (14:37 UTC)


TAF: eksik

4.000'den fazla havaalanı için hava durumu gözlemleri ve tahminleri (METAR ve TAF raporları).

Kullanılabilir istasyonlar harita üzerinde sarı ve kırmızı noktalarla gösterilir.

İstasyonun adını görmek için fareyi noktanın üzerinde gezdirin.

Sonrasında hava gözlem ve tahminlerini görmek için tıklayın.

Haritayı değiştirmek için: yaklaştırmak için siyah artı işaretli yeşil düğmeye ve uzaklaştırmak için de eksi işaretli düğmeye hızla tıklayın; bitişik haritalar için yeşil okları kullanın.


METAR-TAF: